Time;durP1;ratioP1;P1;durP2;ratioP2;P2;SDS_P1;SDS_P2;PMS_P1;PMS_P2;Temp;Humidity;BMP_temperature;BMP_pressure;BME280_temperature;BME280_humidity;BME280_pressure;Samples;Min_cycle;Max_cycle;Signal;HPM_P1;HPM_P2
2022/12/02 00:00:54;;;;;;;48.25;22.65;;;;;;;8.64;70.48;102551.72;4944544;28;121768;-77
2022/12/02 00:03:22;;;;;;;46.28;23.30;;;;;;;8.65;70.92;102556.03;4945627;28;119803;-77
2022/12/02 00:05:52;;;;;;;49.95;23.42;;;;;;;8.72;70.83;102556.00;4933954;28;119480;-78
2022/12/02 00:08:20;;;;;;;48.38;24.40;;;;;;;8.77;70.47;102550.94;4959798;28;119906;-78
2022/12/02 00:10:50;;;;;;;53.33;26.27;;;;;;;8.80;70.54;102560.31;4941311;28;119836;-76
2022/12/02 00:13:23;;;;;;;60.17;27.13;;;;;;;8.82;70.77;102553.28;4946538;28;119382;-76
2022/12/02 00:16:00;;;;;;;53.75;25.52;;;;;;;8.86;70.57;102556.00;4941622;28;120287;-77
2022/12/02 00:18:27;;;;;;;61.63;29.13;;;;;;;8.84;70.60;102563.84;4930308;28;119506;-77
2022/12/02 00:20:53;;;;;;;62.88;30.17;;;;;;;8.79;70.33;102551.34;4943076;28;119424;-78
2022/12/02 00:23:19;;;;;;;64.13;30.05;;;;;;;8.83;70.24;102556.81;4944928;28;121209;-78
2022/12/02 00:25:47;;;;;;;65.70;30.33;;;;;;;8.86;70.74;102562.28;4946755;28;119719;-76
2022/12/02 00:28:14;;;;;;;58.65;29.48;;;;;;;8.82;70.44;102544.28;4949396;28;119748;-78
2022/12/02 00:30:40;;;;;;;63.80;30.90;;;;;;;8.80;70.02;102554.84;4943258;28;119859;-77
2022/12/02 00:33:08;;;;;;;63.83;31.95;;;;;;;8.82;70.42;102560.72;4946278;28;119889;-76
2022/12/02 00:35:34;;;;;;;63.67;32.38;;;;;;;8.83;70.55;102565.00;4945839;28;119743;-77
2022/12/02 00:38:00;;;;;;;61.58;31.02;;;;;;;8.82;69.97;102560.72;4927109;28;119447;-77
2022/12/02 00:40:25;;;;;;;65.72;32.22;;;;;;;8.86;70.49;102556.00;4926450;28;119390;-76
2022/12/02 00:42:52;;;;;;;69.13;31.73;;;;;;;8.89;70.92;102557.97;4939385;28;119985;-76
2022/12/02 00:48:02;;;;;;;69.30;30.85;;;;;;;8.97;70.92;102562.25;4944110;28;120183;-76
2022/12/02 00:50:28;;;;;;;68.63;29.88;;;;;;;9.02;70.76;102567.34;4956425;28;120338;-78
2022/12/02 00:52:54;;;;;;;72.43;33.90;;;;;;;9.04;70.55;102551.31;4947774;28;119269;-76
2022/12/02 00:55:21;;;;;;;73.28;33.20;;;;;;;9.07;70.70;102561.47;4942607;28;119880;-77
2022/12/02 00:57:47;;;;;;;75.63;32.90;;;;;;;9.07;70.77;102557.94;4944218;28;119861;-76
2022/12/02 01:00:15;;;;;;;77.53;33.63;;;;;;;9.11;71.14;102558.72;4945947;28;119591;-76
2022/12/02 01:02:42;;;;;;;79.70;34.22;;;;;;;9.15;71.14;102557.53;4947099;28;120830;-76
2022/12/02 01:05:08;;;;;;;75.65;33.97;;;;;;;9.21;70.75;102555.16;4946595;28;119758;-76
2022/12/02 01:07:34;;;;;;;75.22;34.28;;;;;;;9.18;70.36;102551.25;4947264;28;119286;-76
2022/12/02 01:10:00;;;;;;;83.43;36.00;;;;;;;9.21;70.13;102555.94;4941308;28;119887;-76
2022/12/02 01:12:25;;;;;;;78.75;35.60;;;;;;;9.19;70.00;102552.81;4932806;28;119334;-76
2022/12/02 01:14:51;;;;;;;82.82;35.20;;;;;;;9.20;70.06;102562.59;4942141;28;120179;-76
2022/12/02 01:17:17;;;;;;;82.90;35.92;;;;;;;9.19;70.48;102557.50;4944071;28;120023;-76
2022/12/02 01:19:43;;;;;;;88.68;37.20;;;;;;;9.23;70.34;102564.56;4947260;28;120056;-76
2022/12/02 01:22:09;;;;;;;81.20;35.35;;;;;;;9.25;70.04;102563.38;4927996;28;119557;-76
2022/12/02 01:24:34;;;;;;;83.32;36.10;;;;;;;9.25;69.84;102555.19;4942686;28;119580;-76
2022/12/02 01:27:00;;;;;;;86.70;36.53;;;;;;;9.23;70.33;102564.56;4944944;28;120010;-76
2022/12/02 01:29:26;;;;;;;87.45;36.85;;;;;;;9.22;69.59;102560.25;4944105;28;119245;-76
2022/12/02 01:31:53;;;;;;;96.90;38.33;;;;;;;9.16;70.05;102559.09;4945507;28;119509;-76
2022/12/02 01:34:18;;;;;;;101.25;39.88;;;;;;;9.22;70.13;102556.72;4948757;28;119686;-76
2022/12/02 01:36:44;;;;;;;107.22;40.63;;;;;;;9.21;70.08;102555.94;4942457;28;119377;-76
2022/12/02 01:39:10;;;;;;;98.70;39.35;;;;;;;9.14;69.83;102550.47;4946229;28;119550;-76
2022/12/02 01:41:37;;;;;;;97.68;38.92;;;;;;;9.20;69.41;102550.84;4945034;28;119442;-76
2022/12/02 01:44:03;;;;;;;94.50;38.28;;;;;;;9.19;69.36;102550.06;4944058;28;119587;-76
2022/12/02 01:46:28;;;;;;;98.88;39.47;;;;;;;9.18;69.46;102553.22;4942570;28;119620;-76
2022/12/02 01:48:54;;;;;;;93.35;38.47;;;;;;;9.16;69.70;102559.09;4942647;28;119354;-76
2022/12/02 01:51:20;;;;;;;95.63;38.92;;;;;;;9.18;69.96;102556.72;4945636;28;119228;-76
2022/12/02 01:53:46;;;;;;;92.07;38.20;;;;;;;9.17;69.59;102549.69;4942607;28;119899;-76
2022/12/02 01:56:12;;;;;;;90.85;36.55;;;;;;;9.18;69.97;102548.53;4940529;28;119710;-76
2022/12/02 01:58:37;;;;;;;91.18;36.97;;;;;;;9.08;69.42;102543.09;4944943;28;119501;-76
2022/12/02 02:01:28;;;;;;;91.60;37.97;;;;;;;9.14;69.44;102549.72;4912908;28;121563;-76
2022/12/02 02:03:54;;;;;;;87.53;36.50;;;;;;;9.09;69.24;102548.16;4942001;28;119798;-76
2022/12/02 02:06:20;;;;;;;92.90;36.83;;;;;;;9.10;69.58;102551.69;4944591;28;119888;-76
2022/12/02 02:08:46;;;;;;;92.38;38.08;;;;;;;9.05;69.66;102543.88;4942393;28;120270;-76
2022/12/02 02:11:12;;;;;;;95.47;36.95;;;;;;;9.05;69.21;102552.09;4943565;28;119690;-76
2022/12/02 02:13:38;;;;;;;89.35;37.92;;;;;;;9.06;69.55;102551.69;4943833;28;120357;-76
2022/12/02 02:16:04;;;;;;;92.40;37.00;;;;;;;9.04;69.54;102540.34;4926536;28;121201;-76
2022/12/02 02:18:30;;;;;;;88.38;36.70;;;;;;;9.06;69.03;102538.00;4944786;28;119936;-76
2022/12/02 02:20:57;;;;;;;84.35;36.17;;;;;;;9.05;69.63;102541.91;4945020;28;119663;-76
2022/12/02 02:23:25;;;;;;;82.05;36.08;;;;;;;9.06;69.49;102539.97;4924806;28;119227;-76
2022/12/02 02:25:58;;;;;;;91.28;37.95;;;;;;;9.05;69.44;102541.13;4944368;28;119804;-76
2022/12/02 02:28:29;;;;;;;91.15;37.28;;;;;;;9.05;69.74;102541.91;4943521;28;120520;-76
2022/12/02 02:30:57;;;;;;;87.20;37.13;;;;;;;9.07;69.30;102539.56;4942019;28;119569;-76
2022/12/02 02:33:30;;;;;;;89.85;37.33;;;;;;;9.05;69.43;102530.19;4938607;28;120122;-76
2022/12/02 02:35:56;;;;;;;91.22;38.88;;;;;;;9.05;69.66;102530.19;4941373;28;120297;-76
2022/12/02 02:38:25;;;;;;;88.63;36.35;;;;;;;9.06;69.14;102531.75;4948970;28;119245;-76
2022/12/02 02:40:53;;;;;;;90.30;38.78;;;;;;;9.04;69.38;102521.19;4941917;28;119367;-76
2022/12/02 02:43:22;;;;;;;93.40;40.15;;;;;;;9.05;69.47;102525.50;4940760;28;119805;-75
2022/12/02 02:45:49;;;;;;;87.00;38.60;;;;;;;9.03;68.93;102527.84;4913905;28;119803;-76
2022/12/02 02:48:17;;;;;;;84.47;38.60;;;;;;;8.97;69.10;102510.25;4941318;28;119717;-76
2022/12/02 02:50:45;;;;;;;89.82;39.50;;;;;;;8.95;68.56;102515.31;4945405;28;119772;-77
2022/12/02 02:53:17;;;;;;;87.03;39.95;;;;;;;8.89;68.50;102517.69;4942552;28;119771;-77
2022/12/02 02:55:43;;;;;;;88.45;38.63;;;;;;;8.89;69.08;102519.66;4943361;28;119291;-76
2022/12/02 02:58:15;;;;;;;91.65;41.08;;;;;;;8.91;69.35;102523.53;4944895;28;119769;-76
2022/12/02 03:01:00;;;;;;;89.85;40.00;;;;;;;8.90;68.90;102523.94;4946537;28;119699;-76
2022/12/02 03:03:32;;;;;;;88.78;38.10;;;;;;;8.90;68.71;102523.94;4941419;28;119409;-76
2022/12/02 03:06:00;;;;;;;84.57;38.20;;;;;;;8.91;69.73;102517.28;4928609;28;120702;-76
2022/12/02 03:08:30;;;;;;;84.93;39.30;;;;;;;8.89;68.92;102522.38;4960258;28;119399;-76
2022/12/02 03:10:58;;;;;;;80.88;36.58;;;;;;;8.86;68.99;102510.28;4945204;28;119468;-76
2022/12/02 03:13:25;;;;;;;81.10;37.83;;;;;;;8.94;68.84;102513.75;4928553;28;121030;-76
2022/12/02 03:15:51;;;;;;;76.03;37.17;;;;;;;8.95;69.11;102515.31;4942126;28;120032;-76
2022/12/02 03:18:17;;;;;;;79.65;37.40;;;;;;;8.97;68.88;102512.19;4940219;28;119785;-76
2022/12/02 03:20:43;;;;;;;77.20;37.35;;;;;;;8.97;68.65;102512.97;4941100;28;119657;-76
2022/12/02 03:23:09;;;;;;;73.25;36.22;;;;;;;8.98;68.82;102513.75;4944900;28;120055;-76
2022/12/02 03:25:35;;;;;;;74.47;36.78;;;;;;;8.95;68.32;102504.38;4939439;28;119198;-76
2022/12/02 03:28:01;;;;;;;78.13;37.80;;;;;;;8.91;67.85;102496.19;4937871;28;120224;-76
2022/12/02 03:30:27;;;;;;;77.45;38.28;;;;;;;8.90;68.49;102502.84;4941384;28;120258;-76
2022/12/02 03:32:53;;;;;;;78.65;37.38;;;;;;;8.90;68.65;102497.34;4941121;28;119318;-76
2022/12/02 03:35:19;;;;;;;71.97;36.33;;;;;;;8.89;68.57;102497.75;4944397;28;119565;-76
2022/12/02 03:37:45;;;;;;;72.95;37.53;;;;;;;8.90;68.31;102502.06;4941458;28;120658;-76
2022/12/02 03:40:11;;;;;;;78.80;38.97;;;;;;;8.90;68.09;102502.06;4934239;28;119829;-76
2022/12/02 03:42:37;;;;;;;76.93;39.05;;;;;;;8.85;68.10;102494.25;4936325;28;119877;-76
2022/12/02 03:45:04;;;;;;;79.18;39.10;;;;;;;8.84;67.97;102496.19;4942060;28;119822;-76
2022/12/02 03:47:30;;;;;;;80.15;39.00;;;;;;;8.82;68.28;102490.34;4938223;28;119620;-76
2022/12/02 03:49:57;;;;;;;82.38;40.40;;;;;;;8.82;67.94;102495.03;4937055;28;119711;-76
2022/12/02 03:52:23;;;;;;;79.85;40.33;;;;;;;8.79;68.03;102507.56;4938995;28;119388;-76
2022/12/02 03:54:48;;;;;;;78.25;39.47;;;;;;;8.77;68.18;102514.59;4942069;28;119997;-76
2022/12/02 03:57:14;;;;;;;80.97;40.47;;;;;;;8.74;67.65;102501.69;4942592;28;119630;-76
2022/12/02 03:59:40;;;;;;;78.97;39.70;;;;;;;8.72;67.60;102498.56;4943014;28;119467;-76
2022/12/02 04:02:06;;;;;;;82.00;41.00;;;;;;;8.72;68.20;102509.50;4942012;28;120402;-76
2022/12/02 04:04:32;;;;;;;83.40;41.47;;;;;;;8.67;68.01;102498.97;4945248;28;119439;-76
2022/12/02 04:06:57;;;;;;;83.00;41.53;;;;;;;8.73;67.93;102502.84;4940466;28;120753;-76
2022/12/02 04:09:23;;;;;;;88.80;42.97;;;;;;;8.73;68.25;102511.06;4940887;28;119586;-76
2022/12/02 04:11:49;;;;;;;85.85;42.45;;;;;;;8.70;67.87;102517.31;4941527;28;119875;-76
2022/12/02 04:14:15;;;;;;;88.97;42.03;;;;;;;8.63;67.92;102507.16;4942455;28;119315;-76
2022/12/02 04:16:40;;;;;;;85.40;42.65;;;;;;;8.58;68.29;102494.69;4943515;28;119526;-76
2022/12/02 04:19:06;;;;;;;83.57;40.95;;;;;;;8.66;68.27;102502.88;4945692;28;119515;-76
2022/12/02 04:21:32;;;;;;;85.13;40.90;;;;;;;8.68;68.66;102495.81;4943469;28;120420;-76
2022/12/02 04:23:57;;;;;;;81.82;41.67;;;;;;;8.71;68.12;102502.47;4943459;28;119683;-76
2022/12/02 04:26:23;;;;;;;83.95;41.35;;;;;;;8.66;68.62;102486.47;4943305;28;119342;-76
2022/12/02 04:28:49;;;;;;;84.80;42.08;;;;;;;8.66;68.39;102491.94;4941861;28;120004;-76
2022/12/02 04:31:15;;;;;;;88.45;43.72;;;;;;;8.68;68.30;102503.25;4941022;28;119359;-76
2022/12/02 04:33:40;;;;;;;88.80;44.10;;;;;;;8.67;68.13;102498.97;4941390;28;119419;-76
2022/12/02 04:36:06;;;;;;;86.43;44.35;;;;;;;8.64;68.45;102497.78;4946809;28;119481;-76
2022/12/02 04:38:32;;;;;;;90.28;43.83;;;;;;;8.63;68.73;102500.91;4941864;28;119342;-76
2022/12/02 04:40:58;;;;;;;87.60;42.60;;;;;;;8.65;68.74;102504.81;4944168;28;120849;-76
2022/12/02 04:43:23;;;;;;;88.28;43.30;;;;;;;8.66;68.54;102494.66;4945983;28;120015;-76
2022/12/02 04:45:49;;;;;;;85.57;43.90;;;;;;;8.68;68.54;102500.53;4948270;28;119895;-76
2022/12/02 04:48:15;;;;;;;87.00;43.45;;;;;;;8.70;68.52;102503.63;4948074;28;120419;-76
2022/12/02 04:50:40;;;;;;;86.47;44.15;;;;;;;8.69;68.35;102496.59;4944032;28;119357;-76
2022/12/02 04:53:06;;;;;;;83.47;42.97;;;;;;;8.68;68.44;102506.00;4944810;28;120829;-76
2022/12/02 04:55:32;;;;;;;86.20;41.95;;;;;;;8.67;68.32;102493.50;4942155;28;119665;-76
2022/12/02 04:57:58;;;;;;;81.80;41.42;;;;;;;8.65;68.57;102495.84;4944176;28;119424;-77
2022/12/02 05:00:23;;;;;;;82.30;42.28;;;;;;;8.66;68.42;102494.66;4944361;28;119453;-76
2022/12/02 05:02:49;;;;;;;86.05;42.67;;;;;;;8.66;68.93;102497.41;4943248;28;119847;-76
2022/12/02 05:05:15;;;;;;;85.10;41.35;;;;;;;8.68;69.10;102489.56;4944177;28;119810;-76
2022/12/02 05:07:41;;;;;;;78.28;40.05;;;;;;;8.70;69.01;102490.75;4943608;28;120631;-76
2022/12/02 05:10:07;;;;;;;80.70;39.90;;;;;;;8.71;68.15;102489.56;4950900;28;119400;-76
2022/12/02 05:12:33;;;;;;;78.95;40.40;;;;;;;8.72;68.89;102496.59;4940476;28;119659;-76
2022/12/02 05:14:59;;;;;;;79.22;38.78;;;;;;;8.75;68.86;102481.34;4941313;28;119474;-76
2022/12/02 05:17:25;;;;;;;70.18;37.55;;;;;;;8.74;68.84;102482.53;4942442;28;119829;-76
2022/12/02 05:19:50;;;;;;;72.72;37.15;;;;;;;8.78;69.00;102483.31;4942511;28;122022;-76
2022/12/02 05:22:16;;;;;;;68.82;36.00;;;;;;;8.70;68.93;102471.59;4945578;28;119442;-76
2022/12/02 05:24:42;;;;;;;67.47;35.92;;;;;;;8.75;68.71;102484.09;4944379;28;119718;-76
2022/12/02 05:27:08;;;;;;;67.85;36.28;;;;;;;8.75;68.41;102484.09;4943170;28;119872;-76
2022/12/02 05:29:33;;;;;;;63.65;34.65;;;;;;;8.71;68.22;102473.16;4942585;28;119789;-76
2022/12/02 05:31:59;;;;;;;65.55;34.08;;;;;;;8.69;68.67;102474.72;4948797;28;119710;-77
2022/12/02 05:34:25;;;;;;;65.65;34.17;;;;;;;8.70;68.29;102484.50;4944525;28;119754;-76
2022/12/02 05:36:51;;;;;;;58.75;32.15;;;;;;;8.61;68.04;102472.00;4942672;28;119331;-76
2022/12/02 05:39:16;;;;;;;54.15;30.92;;;;;;;8.57;68.03;102486.88;4943113;28;122688;-76
2022/12/02 05:41:43;;;;;;;53.42;29.90;;;;;;;8.54;68.78;102473.97;4940440;28;119822;-76
2022/12/02 05:44:21;;;;;;;53.05;30.38;;;;;;;8.57;69.06;102489.59;4945076;28;119317;-76
2022/12/02 05:46:47;;;;;;;57.58;29.88;;;;;;;8.50;69.14;102479.44;4942081;28;119708;-76
2022/12/02 05:49:19;;;;;;;54.17;30.38;;;;;;;8.42;68.56;102477.88;4941934;28;119740;-76
2022/12/02 05:51:51;;;;;;;51.25;29.80;;;;;;;8.42;68.56;102485.31;4926587;28;120300;-76
2022/12/02 05:54:19;;;;;;;49.15;28.35;;;;;;;8.41;68.59;102492.72;4946942;28;119308;-76
2022/12/02 05:56:46;;;;;;;45.17;27.52;;;;;;;8.40;68.52;102490.38;4942810;28;119485;-76
2022/12/02 05:59:19;;;;;;;41.72;26.60;;;;;;;8.40;68.84;102496.63;4945873;28;119898;-76
2022/12/02 06:01:52;;;;;;;47.88;27.40;;;;;;;8.38;68.67;102490.78;4945035;28;119410;-76
2022/12/02 06:04:21;;;;;;;42.25;27.08;;;;;;;8.36;68.68;102489.59;4942908;28;120275;-76
2022/12/02 06:06:47;;;;;;;40.35;25.80;;;;;;;8.34;68.70;102509.13;4943699;28;119921;-76
2022/12/02 06:09:19;;;;;;;40.97;25.58;;;;;;;8.30;68.51;102497.41;4942289;28;119734;-76
2022/12/02 06:11:46;;;;;;;37.17;24.73;;;;;;;8.29;68.66;102490.38;4938821;28;122217;-76
2022/12/02 06:14:18;;;;;;;38.97;24.67;;;;;;;8.27;68.21;102504.41;4948103;28;120210;-76
2022/12/02 06:16:59;;;;;;;35.47;23.38;;;;;;;8.25;68.20;102504.00;4941708;28;119419;-76
2022/12/02 06:19:39;;;;;;;34.97;23.50;;;;;;;8.26;68.99;102502.06;4943294;28;120305;-76
2022/12/02 06:22:16;;;;;;;36.10;24.27;;;;;;;8.28;68.84;102507.91;4943321;28;119675;-75
2022/12/02 06:24:42;;;;;;;34.15;23.35;;;;;;;8.26;68.37;102510.25;4939698;28;120555;-76
2022/12/02 06:27:12;;;;;;;37.58;24.42;;;;;;;8.25;68.44;102503.22;4941399;28;119841;-76
2022/12/02 06:29:45;;;;;;;34.28;23.08;;;;;;;8.31;68.63;102507.16;4942323;28;119374;-76
2022/12/02 06:32:17;;;;;;;35.78;23.55;;;;;;;8.36;68.72;102517.72;4946847;28;119754;-76
2022/12/02 06:34:43;;;;;;;35.78;22.92;;;;;;;8.39;68.65;102518.91;4927743;28;119365;-76
2022/12/02 06:37:29;;;;;;;34.80;23.27;;;;;;;8.40;67.72;102518.50;4947133;28;119291;-76
2022/12/02 06:39:57;;;;;;;33.53;22.15;;;;;;;8.35;67.97;102515.38;4943185;28;119685;-76
2022/12/02 06:42:34;;;;;;;34.83;22.13;;;;;;;8.39;67.84;102519.69;4948387;28;119624;-76
2022/12/02 06:45:21;;;;;;;32.47;21.92;;;;;;;8.35;68.18;102516.16;4946057;28;120453;-76
2022/12/02 06:48:25;;;;;;;36.35;22.80;;;;;;;8.33;67.79;102515.75;4942682;28;119935;-75
2022/12/02 06:50:51;;;;;;;31.83;21.90;;;;;;;8.33;67.79;102513.03;4940526;28;119490;-76
2022/12/02 06:53:36;;;;;;;32.83;21.90;;;;;;;8.35;67.61;102527.09;4940616;28;121975;-76
2022/12/02 06:56:23;;;;;;;30.15;21.35;;;;;;;8.32;68.24;102514.19;4945337;28;119960;-76
2022/12/02 06:58:54;;;;;;;29.48;21.08;;;;;;;8.31;67.76;102523.56;4946959;28;119462;-76
2022/12/02 07:01:26;;;;;;;33.17;21.35;;;;;;;8.32;67.63;102519.66;4949185;28;119731;-76
2022/12/02 07:04:07;;;;;;;30.35;21.15;;;;;;;8.35;68.29;102521.63;4945069;28;119394;-77
2022/12/02 07:06:40;;;;;;;32.67;21.13;;;;;;;8.34;67.93;102528.28;4943961;28;119397;-76
2022/12/02 07:09:15;;;;;;;32.45;21.23;;;;;;;8.35;68.07;102523.59;4941148;28;119377;-77
2022/12/02 07:11:50;;;;;;;31.98;21.00;;;;;;;8.19;68.23;102507.53;4943230;28;119397;-76
2022/12/02 07:14:28;;;;;;;35.22;21.55;;;;;;;8.32;68.20;102520.44;4940781;28;119386;-77
2022/12/02 07:17:02;;;;;;;34.95;21.60;;;;;;;8.30;68.38;102524.75;4941598;28;120364;-76
2022/12/02 07:19:44;;;;;;;33.53;21.48;;;;;;;8.34;67.75;102539.22;4942477;28;119446;-76
2022/12/02 07:22:15;;;;;;;33.85;21.52;;;;;;;8.39;68.28;102532.56;4943358;28;119630;-76
2022/12/02 07:24:43;;;;;;;33.60;20.85;;;;;;;8.39;68.24;102540.78;4941094;28;121203;-76
2022/12/02 07:27:28;;;;;;;31.42;21.05;;;;;;;8.49;68.83;102546.25;4943197;28;119791;-77
2022/12/02 07:29:55;;;;;;;33.28;21.02;;;;;;;8.53;68.31;102555.25;4942158;28;119382;-76
2022/12/02 07:32:21;;;;;;;34.05;21.08;;;;;;;8.51;68.31;102541.16;4942722;28;119668;-77
2022/12/02 07:34:47;;;;;;;33.03;20.85;;;;;;;8.55;68.09;102544.69;4943212;28;120288;-77
2022/12/02 07:37:13;;;;;;;34.17;21.77;;;;;;;8.60;68.24;102555.25;4943088;28;120834;-77
2022/12/02 07:39:39;;;;;;;31.67;20.40;;;;;;;8.63;67.83;102556.41;4941694;28;119820;-77
2022/12/02 07:42:05;;;;;;;35.85;20.85;;;;;;;8.66;68.00;102554.84;4942099;28;120006;-76
2022/12/02 07:44:31;;;;;;;37.15;21.23;;;;;;;8.73;68.01;102558.34;4940448;28;119786;-76
2022/12/02 07:46:56;;;;;;;34.40;20.67;;;;;;;8.75;68.16;102549.75;4947283;28;119361;-77
2022/12/02 07:49:22;;;;;;;38.90;22.35;;;;;;;8.84;67.83;102563.84;4942041;28;120307;-77
2022/12/02 07:51:48;;;;;;;40.60;22.27;;;;;;;8.90;68.11;102567.75;4942037;28;119633;-76
2022/12/02 07:54:14;;;;;;;38.78;21.38;;;;;;;8.95;67.96;102566.56;4942198;28;121280;-76
2022/12/02 07:56:40;;;;;;;39.08;21.95;;;;;;;8.97;67.88;102567.72;4943000;28;119754;-77
2022/12/02 07:59:05;;;;;;;39.28;22.45;;;;;;;8.98;67.85;102563.03;4938924;28;119456;-77
2022/12/02 08:01:31;;;;;;;38.60;22.63;;;;;;;9.05;67.45;102568.50;4923669;28;120241;-76
2022/12/02 08:03:57;;;;;;;39.53;22.25;;;;;;;9.04;67.52;102569.69;4941310;28;123009;-77
2022/12/02 08:06:23;;;;;;;42.92;24.23;;;;;;;9.03;67.21;102566.16;4943685;28;119442;-77
2022/12/02 08:08:48;;;;;;;36.70;21.83;;;;;;;9.15;67.66;102584.13;4944891;28;120051;-77
2022/12/02 08:11:14;;;;;;;44.83;24.02;;;;;;;9.15;67.25;102584.13;4924609;28;119901;-77
2022/12/02 08:13:40;;;;;;;45.22;25.33;;;;;;;9.14;67.17;102577.88;4922150;28;120150;-77
2022/12/02 08:16:07;;;;;;;42.33;24.85;;;;;;;9.13;67.39;102587.25;4924841;28;120127;-77
2022/12/02 08:18:33;;;;;;;50.25;27.40;;;;;;;9.13;67.19;102586.47;4939787;28;119686;-77
2022/12/02 08:20:59;;;;;;;53.03;29.58;;;;;;;9.08;66.77;102578.66;4942279;28;119300;-77
2022/12/02 08:23:25;;;;;;;56.47;31.30;;;;;;;9.04;66.52;102589.63;4940984;28;121004;-77
2022/12/02 08:25:50;;;;;;;60.10;33.30;;;;;;;9.00;66.88;102577.91;4942596;28;119313;-77
2022/12/02 08:28:16;;;;;;;62.42;32.90;;;;;;;9.02;66.56;102591.19;4942418;28;121470;-77
2022/12/02 08:30:42;;;;;;;60.08;33.00;;;;;;;9.00;66.47;102594.34;4937685;28;119519;-76
2022/12/02 08:33:08;;;;;;;64.53;34.83;;;;;;;8.95;66.75;102591.97;4941478;28;119739;-76
2022/12/02 08:35:33;;;;;;;61.10;33.67;;;;;;;8.93;66.69;102588.84;4938163;28;119302;-76
2022/12/02 08:37:59;;;;;;;62.75;34.17;;;;;;;8.89;66.83;102588.84;4940596;28;119481;-76
2022/12/02 08:40:25;;;;;;;59.95;32.78;;;;;;;8.91;66.83;102593.94;4939481;28;119543;-76
2022/12/02 08:42:51;;;;;;;63.95;33.95;;;;;;;8.86;67.05;102594.34;4933436;28;120322;-76
2022/12/02 08:45:17;;;;;;;61.20;33.25;;;;;;;8.82;66.38;102599.03;4942576;28;119689;-76
2022/12/02 08:47:43;;;;;;;65.00;34.35;;;;;;;8.82;66.83;102599.03;4942559;28;119502;-76
2022/12/02 08:50:09;;;;;;;65.90;36.17;;;;;;;8.85;67.25;102604.50;4943507;28;120477;-76
2022/12/02 08:52:35;;;;;;;64.75;35.17;;;;;;;8.84;66.91;102597.47;4940512;28;119313;-78
2022/12/02 08:55:01;;;;;;;62.70;34.45;;;;;;;8.73;66.62;102590.41;4941966;28;119448;-79
2022/12/02 08:57:27;;;;;;;64.30;35.55;;;;;;;8.81;66.29;102597.47;4938374;28;119600;-78
2022/12/02 08:59:53;;;;;;;66.60;35.30;;;;;;;8.79;67.43;102602.56;4940296;28;119960;-78
2022/12/02 09:02:19;;;;;;;68.32;36.33;;;;;;;8.73;66.95;102595.88;4941570;28;119330;-78
2022/12/02 09:04:44;;;;;;;64.47;34.65;;;;;;;8.77;66.42;102602.94;4941891;28;119518;-78
2022/12/02 09:07:10;;;;;;;68.55;36.50;;;;;;;8.76;66.29;102609.59;4943602;28;120016;-78
2022/12/02 09:09:36;;;;;;;66.72;36.17;;;;;;;8.75;66.54;102608.00;4939103;28;119937;-76
2022/12/02 09:12:02;;;;;;;66.20;35.83;;;;;;;8.68;66.70;102608.00;4945889;28;119968;-76
2022/12/02 09:14:28;;;;;;;72.38;36.33;;;;;;;8.75;66.57;102610.72;4939484;28;119529;-76
2022/12/02 09:16:54;;;;;;;68.05;36.78;;;;;;;8.61;66.33;102592.38;4939080;28;119444;-76
2022/12/02 09:19:19;;;;;;;65.32;35.22;;;;;;;8.72;66.54;102618.94;4942332;28;119158;-76
2022/12/02 09:21:45;;;;;;;63.92;34.83;;;;;;;8.65;65.77;102614.25;4941934;28;121766;-76
2022/12/02 09:24:11;;;;;;;63.95;34.80;;;;;;;8.60;66.53;102609.97;4932683;28;119789;-76
2022/12/02 09:26:36;;;;;;;65.95;35.53;;;;;;;8.59;66.39;102608.41;4943107;28;119446;-76
2022/12/02 09:29:02;;;;;;;65.68;35.85;;;;;;;8.60;66.67;102606.44;4943952;28;119930;-76
2022/12/02 09:31:28;;;;;;;63.22;34.55;;;;;;;8.66;66.30;102609.56;4942906;28;119978;-76
2022/12/02 09:33:54;;;;;;;62.05;34.88;;;;;;;8.65;66.32;102619.72;4945902;28;119854;-76
2022/12/02 09:36:19;;;;;;;67.93;35.92;;;;;;;8.70;66.35;102621.28;4944652;28;119764;-76
2022/12/02 09:38:45;;;;;;;66.75;35.80;;;;;;;8.72;66.77;102619.72;4940629;28;119301;-78
2022/12/02 09:41:11;;;;;;;65.57;36.50;;;;;;;8.75;65.97;102608.00;4947726;28;119312;-78
2022/12/02 09:43:36;;;;;;;64.40;34.88;;;;;;;8.79;66.84;102616.22;4946905;28;119432;-78
2022/12/02 09:46:05;;;;;;;62.22;34.55;;;;;;;8.79;66.28;102610.75;4947556;28;119706;-78
2022/12/02 09:48:31;;;;;;;64.30;34.55;;;;;;;8.82;66.93;102607.25;4930999;28;120622;-82
2022/12/02 09:50:58;;;;;;;59.13;33.35;;;;;;;8.84;66.57;102613.09;4951080;28;119789;-80
2022/12/02 09:53:30;;;;;;;61.55;33.47;;;;;;;8.84;66.43;102608.41;4956497;28;119325;-79
2022/12/02 09:55:56;;;;;;;57.33;31.85;;;;;;;8.79;66.47;102610.75;4964044;28;120287;-79
2022/12/02 09:58:22;;;;;;;54.70;30.55;;;;;;;8.85;66.59;102606.44;4943995;28;120817;-76
2022/12/02 10:00:50;;;;;;;49.63;28.25;;;;;;;8.89;66.05;102613.47;4939834;28;119462;-77
2022/12/02 10:03:19;;;;;;;50.72;28.17;;;;;;;8.84;66.44;102600.19;4945807;28;119402;-76
2022/12/02 10:05:45;;;;;;;50.05;27.95;;;;;;;8.88;66.33;102611.91;4942461;28;119348;-76
2022/12/02 10:08:24;;;;;;;43.95;26.20;;;;;;;8.88;66.25;102613.88;4944416;28;120169;-77
2022/12/02 10:10:53;;;;;;;44.03;27.45;;;;;;;8.82;66.31;102596.28;4937529;28;119973;-77
2022/12/02 10:13:20;;;;;;;41.83;24.65;;;;;;;8.78;65.81;102601.00;4933285;28;120850;-77
2022/12/02 10:15:46;;;;;;;38.05;23.17;;;;;;;8.83;66.12;102611.53;4938574;28;119372;-80
2022/12/02 10:18:18;;;;;;;35.50;21.60;;;;;;;8.83;66.25;102609.59;4927771;28;119865;-78
2022/12/02 10:20:44;;;;;;;28.08;17.73;;;;;;;8.80;66.03;102606.84;4940884;28;119502;-76
2022/12/02 10:23:22;;;;;;;27.08;16.50;;;;;;;8.75;65.87;102607.22;4937179;28;119828;-78
2022/12/02 10:25:53;;;;;;;24.05;15.73;;;;;;;8.75;65.60;102610.72;4939565;28;119412;-76
2022/12/02 10:28:20;;;;;;;20.42;14.15;;;;;;;8.71;65.96;102606.44;4939195;28;119683;-75
2022/12/02 10:31:18;;;;;;;20.90;13.02;;;;;;;8.76;66.50;102604.13;4937620;28;119467;-77
2022/12/02 10:33:57;;;;;;;20.08;12.85;;;;;;;8.83;66.41;102598.63;4936695;28;119524;-76
2022/12/02 10:36:36;;;;;;;19.63;13.52;;;;;;;8.89;65.89;102601.75;4939357;28;119955;-77
2022/12/02 10:39:23;;;;;;;22.50;14.38;;;;;;;8.93;65.95;102594.31;4926874;28;119768;-77
2022/12/02 10:42:06;;;;;;;23.30;14.35;;;;;;;9.05;66.07;102606.84;4906529;28;121717;-77
2022/12/02 10:44:39;;;;;;;23.45;15.27;;;;;;;9.01;65.34;102598.63;4940625;28;120077;-79
2022/12/02 10:47:25;;;;;;;25.53;16.27;;;;;;;9.04;65.87;102608.00;4940619;28;119928;-79
2022/12/02 10:49:56;;;;;;;26.33;16.80;;;;;;;9.03;65.31;102596.28;4940838;28;120336;-79
2022/12/02 10:52:45;;;;;;;25.33;17.38;;;;;;;9.14;66.38;102593.50;4936796;28;120480;-80
2022/12/02 10:55:11;;;;;;;31.77;19.45;;;;;;;9.23;65.45;102602.91;4941325;28;119455;-80
2022/12/02 10:57:38;;;;;;;28.80;18.60;;;;;;;9.33;65.70;102595.84;4939546;28;119634;-80
2022/12/02 11:00:19;;;;;;;29.08;18.75;;;;;;;9.39;65.37;102604.41;4939177;28;119341;-79
2022/12/02 11:02:48;;;;;;;27.73;17.90;;;;;;;9.43;65.17;102583.28;4943640;28;119686;-80
2022/12/02 11:05:34;;;;;;;25.58;16.63;;;;;;;9.41;64.31;102596.59;4941709;28;119383;-79
2022/12/02 11:08:02;;;;;;;23.00;15.07;;;;;;;9.42;64.04;102592.66;4938170;28;119541;-80
2022/12/02 11:10:32;;;;;;;20.55;13.45;;;;;;;9.38;64.25;102589.16;4938448;28;121148;-80
2022/12/02 11:13:03;;;;;;;22.15;14.10;;;;;;;9.40;64.18;102581.31;4926543;28;119794;-79
2022/12/02 11:15:36;;;;;;;20.80;14.00;;;;;;;9.43;63.86;102586.78;4943460;28;119433;-79
2022/12/02 11:18:05;;;;;;;22.02;14.95;;;;;;;9.34;63.51;102580.97;4940693;28;119787;-79